createdAt,value
2019-03-21T00:03:49.974Z,9.53
2019-03-21T00:08:52.109Z,9.45
2019-03-21T00:14:06.663Z,9.36
2019-03-21T00:19:01.024Z,9.37
2019-03-21T00:24:03.523Z,9.43
2019-03-21T00:29:05.857Z,9.40
2019-03-21T00:34:08.172Z,9.34
2019-03-21T00:39:10.447Z,9.34
2019-03-21T00:44:18.152Z,9.33
2019-03-21T00:49:16.855Z,9.30
2019-03-21T00:54:19.142Z,9.23
2019-03-21T00:59:21.329Z,9.15
2019-03-21T01:04:26.844Z,9.13
2019-03-21T01:09:29.124Z,9.12
2019-03-21T01:14:31.395Z,9.07
2019-03-21T01:19:33.583Z,9.03
2019-03-21T01:24:35.700Z,9.01
2019-03-21T01:29:37.846Z,9.00
2019-03-21T01:34:39.993Z,8.93
2019-03-21T01:39:42.173Z,8.91
2019-03-21T01:44:44.304Z,8.89
2019-03-21T01:49:46.425Z,8.86
2019-03-21T01:54:48.547Z,8.80
2019-03-21T01:59:50.778Z,8.76
2019-03-21T02:04:52.932Z,8.74
2019-03-21T02:09:55.049Z,8.71
2019-03-21T02:14:57.156Z,8.67
2019-03-21T02:19:59.303Z,8.64
2019-03-21T02:25:01.450Z,8.65
2019-03-21T02:30:05.713Z,8.59
2019-03-21T02:35:07.967Z,8.62
2019-03-21T02:40:12.958Z,8.60
2019-03-21T02:45:15.268Z,8.56
2019-03-21T02:50:23.458Z,8.47
2019-03-21T02:55:25.798Z,8.40
2019-03-21T03:00:28.329Z,8.37
2019-03-21T03:05:30.655Z,8.36
2019-03-21T03:10:35.563Z,8.35
2019-03-21T03:15:37.814Z,8.25
2019-03-21T03:20:39.992Z,8.14
2019-03-21T03:25:42.209Z,8.12
2019-03-21T03:30:44.465Z,8.10
2019-03-21T03:35:46.595Z,8.02
2019-03-21T03:40:51.661Z,8.01
2019-03-21T03:45:53.889Z,7.98
2019-03-21T03:50:56.028Z,7.85
2019-03-21T03:55:58.212Z,7.77
2019-03-21T04:01:00.566Z,7.69
2019-03-21T04:06:02.888Z,7.65
2019-03-21T04:11:05.184Z,7.52
2019-03-21T04:16:07.362Z,7.39
2019-03-21T04:21:09.614Z,7.31
2019-03-21T04:26:24.403Z,7.26
2019-03-21T04:31:26.523Z,7.17
2019-03-21T04:36:28.707Z,7.04
2019-03-21T04:41:30.855Z,7.00
2019-03-21T04:46:33.116Z,6.98
2019-03-21T04:51:35.260Z,6.99
2019-03-21T04:56:37.372Z,6.89
2019-03-21T05:01:39.488Z,6.78
2019-03-21T05:06:41.709Z,6.73
2019-03-21T05:11:43.827Z,6.65
2019-03-21T05:16:45.958Z,6.68
2019-03-21T05:21:48.105Z,6.71
2019-03-21T05:26:50.338Z,6.76
2019-03-21T05:31:52.453Z,6.75
2019-03-21T05:36:54.555Z,6.80
2019-03-21T05:41:56.663Z,6.84
2019-03-21T05:46:58.956Z,6.90
2019-03-21T05:52:01.057Z,6.94
2019-03-21T05:57:03.288Z,6.95
2019-03-21T06:02:08.079Z,7.00
2019-03-21T06:07:20.260Z,7.04
2019-03-21T06:12:22.385Z,7.11
2019-03-21T06:17:24.720Z,7.33
2019-03-21T06:23:07.824Z,7.46
2019-03-21T06:28:09.911Z,7.54
2019-03-21T06:33:12.014Z,7.70
2019-03-21T06:38:14.102Z,7.77
2019-03-21T06:43:16.177Z,7.85
2019-03-21T06:48:18.283Z,7.94
2019-03-21T06:53:20.376Z,8.00
2019-03-21T06:58:22.473Z,7.95
2019-03-21T07:03:24.609Z,8.05
2019-03-21T07:08:26.834Z,8.16
2019-03-21T07:13:29.043Z,8.26
2019-03-21T07:18:31.117Z,8.30
2019-03-21T07:23:33.207Z,8.33
2019-03-21T07:28:35.443Z,8.33
2019-03-21T07:33:37.537Z,8.42
2019-03-21T07:38:39.648Z,8.57
2019-03-21T07:43:41.797Z,8.65
2019-03-21T07:48:44.051Z,8.73
2019-03-21T07:53:46.256Z,8.82
2019-03-21T07:58:48.337Z,8.92
2019-03-21T08:03:50.444Z,9.04
2019-03-21T08:08:52.559Z,9.12
2019-03-21T08:13:54.666Z,9.22
2019-03-21T08:18:56.787Z,9.35
2019-03-21T08:23:58.878Z,9.49
2019-03-21T08:29:01.205Z,9.62
2019-03-21T08:34:03.549Z,9.75
2019-03-21T08:39:07.176Z,9.87
2019-03-21T08:44:09.395Z,9.93
2019-03-21T08:49:11.578Z,10.00
2019-03-21T08:54:13.734Z,10.06
2019-03-21T08:59:15.974Z,10.13
2019-03-21T09:04:18.109Z,10.23
2019-03-21T09:09:20.349Z,10.33
2019-03-21T09:14:22.494Z,10.45
2019-03-21T09:19:24.712Z,10.62
2019-03-21T09:24:26.856Z,10.72
2019-03-21T09:29:28.990Z,10.79
2019-03-21T09:34:31.233Z,10.87
2019-03-21T09:39:33.463Z,10.96
2019-03-21T09:44:35.549Z,11.07
2019-03-21T09:49:38.119Z,11.23
2019-03-21T09:54:40.740Z,11.39
2019-03-21T09:59:43.027Z,11.49
2019-03-21T10:04:45.367Z,11.59
2019-03-21T10:09:47.515Z,11.68
2019-03-21T10:14:49.868Z,11.76
2019-03-21T10:19:52.125Z,11.91
2019-03-21T10:24:54.567Z,12.02
2019-03-21T10:29:56.697Z,12.15
2019-03-21T10:34:58.768Z,12.25
2019-03-21T10:40:00.894Z,12.45
2019-03-21T10:45:03.846Z,12.64
2019-03-21T10:50:05.942Z,12.80
2019-03-21T10:55:08.204Z,13.00
2019-03-21T11:00:10.563Z,13.22
2019-03-21T11:05:12.717Z,13.44
2019-03-21T11:10:14.921Z,13.67
2019-03-21T11:15:17.239Z,13.89
2019-03-21T11:20:33.424Z,13.99
2019-03-21T11:25:35.869Z,14.13
2019-03-21T11:30:39.633Z,14.42
2019-03-21T11:35:41.857Z,16.22
2019-03-21T11:40:44.064Z,23.49
2019-03-21T11:45:47.844Z,28.19
2019-03-21T11:50:50.416Z,30.89
2019-03-21T11:55:52.658Z,32.66
2019-03-21T12:00:54.722Z,33.70
2019-03-21T12:05:57.095Z,33.86
2019-03-21T12:10:59.552Z,31.84
2019-03-21T12:16:01.881Z,30.30
2019-03-21T12:21:04.012Z,30.49
2019-03-21T12:26:06.455Z,29.51
2019-03-21T12:31:08.592Z,28.33
2019-03-21T12:36:10.869Z,27.72
2019-03-21T12:41:13.175Z,26.67
2019-03-21T12:46:15.378Z,25.87
2019-03-21T12:51:17.607Z,24.84
2019-03-21T12:56:19.991Z,23.97
2019-03-21T13:01:22.247Z,23.80
2019-03-21T13:06:24.404Z,23.73
2019-03-21T13:11:26.629Z,23.40
2019-03-21T13:16:28.780Z,23.15
2019-03-21T13:21:30.916Z,22.87
2019-03-21T13:26:33.262Z,22.55
2019-03-21T13:31:35.392Z,22.51
2019-03-21T13:36:37.558Z,22.17
2019-03-21T13:41:39.832Z,21.77
2019-03-21T13:46:41.934Z,21.64
2019-03-21T13:51:44.120Z,21.60
2019-03-21T13:56:46.370Z,21.41
2019-03-21T14:01:48.602Z,21.16
2019-03-21T14:06:50.924Z,20.79
2019-03-21T14:11:53.050Z,20.46
2019-03-21T14:16:55.316Z,20.42
2019-03-21T14:21:57.517Z,20.56
2019-03-21T14:26:59.748Z,20.53
2019-03-21T14:32:02.170Z,20.40
2019-03-21T14:37:04.302Z,20.25
2019-03-21T14:42:06.406Z,20.20
2019-03-21T14:47:08.605Z,20.06
2019-03-21T14:52:10.836Z,19.92
2019-03-21T14:57:13.049Z,19.74
2019-03-21T15:02:15.379Z,19.67
2019-03-21T15:07:18.727Z,19.51
2019-03-21T15:12:21.082Z,19.25
2019-03-21T15:17:23.192Z,19.14
2019-03-21T15:22:25.477Z,19.50
2019-03-21T15:27:31.027Z,19.51
2019-03-21T15:32:33.268Z,19.64
2019-03-21T15:37:35.494Z,19.92
2019-03-21T15:42:37.809Z,20.13
2019-03-21T15:47:40.584Z,20.27
2019-03-21T15:52:43.009Z,20.43
2019-03-21T15:57:45.107Z,20.74
2019-03-21T16:08:00.530Z,21.16
2019-03-21T16:13:03.064Z,21.03
2019-03-21T16:18:05.432Z,21.35
2019-03-21T16:28:36.844Z,23.58
2019-03-21T16:33:48.976Z,24.54
2019-03-21T16:38:56.749Z,23.93
2019-03-21T16:43:59.189Z,24.17
2019-03-21T16:49:01.474Z,24.27
2019-03-21T16:54:03.717Z,24.25
2019-03-21T16:59:06.036Z,24.04
2019-03-21T17:04:08.200Z,23.04
2019-03-21T17:09:10.335Z,21.14
2019-03-21T17:14:12.747Z,19.87
2019-03-21T17:19:15.093Z,18.40
2019-03-21T17:24:28.431Z,17.59
2019-03-21T17:29:21.544Z,16.99
2019-03-21T17:34:23.876Z,16.49
2019-03-21T17:39:26.085Z,16.17
2019-03-21T17:44:28.399Z,15.90
2019-03-21T17:49:30.788Z,15.65
2019-03-21T17:54:41.412Z,15.42
2019-03-21T17:59:38.856Z,15.11
2019-03-21T18:09:48.113Z,14.75
2019-03-21T18:24:57.296Z,14.33
2019-03-21T18:29:59.616Z,14.15
2019-03-21T18:35:02.142Z,14.04
2019-03-21T18:40:04.783Z,13.91
2019-03-21T18:45:07.123Z,13.86
2019-03-21T18:50:09.686Z,13.81
2019-03-21T18:55:11.931Z,13.68
2019-03-21T19:00:14.227Z,13.62
2019-03-21T19:05:16.477Z,13.47
2019-03-21T19:10:18.694Z,13.42
2019-03-21T19:15:20.892Z,13.27
2019-03-21T19:20:23.195Z,13.12
2019-03-21T19:25:25.310Z,13.10
2019-03-21T19:30:27.490Z,13.02
2019-03-21T19:35:29.564Z,12.98
2019-03-21T19:40:31.692Z,12.82
2019-03-21T19:45:33.821Z,12.78
2019-03-21T19:50:36.167Z,12.74
2019-03-21T19:55:38.273Z,12.55
2019-03-21T20:00:40.480Z,12.47
2019-03-21T20:05:42.710Z,12.46
2019-03-21T20:10:45.655Z,12.33
2019-03-21T20:15:47.884Z,12.20
2019-03-21T20:20:52.393Z,12.04
2019-03-21T20:25:54.608Z,11.88
2019-03-21T20:30:56.691Z,11.92
2019-03-21T20:35:58.778Z,11.91
2019-03-21T20:41:00.883Z,11.85
2019-03-21T20:46:03.081Z,11.76
2019-03-21T20:51:05.212Z,11.69
2019-03-21T20:56:07.472Z,11.62
2019-03-21T21:01:09.650Z,11.49
2019-03-21T21:06:11.772Z,11.51
2019-03-21T21:11:13.915Z,11.50
2019-03-21T21:16:16.134Z,11.40
2019-03-21T21:21:18.412Z,11.27
2019-03-21T21:26:20.613Z,11.20
2019-03-21T21:31:22.716Z,11.11
2019-03-21T21:36:24.839Z,11.08
2019-03-21T21:41:27.037Z,10.93
2019-03-21T21:46:29.302Z,10.87
2019-03-21T21:51:31.398Z,10.81
2019-03-21T21:56:33.506Z,10.78
2019-03-21T22:01:35.618Z,10.72
2019-03-21T22:06:37.688Z,10.64
2019-03-21T22:11:39.910Z,10.63
2019-03-21T22:16:42.015Z,10.67
2019-03-21T22:21:44.225Z,10.62
2019-03-21T22:26:46.330Z,10.53
2019-03-21T22:31:49.510Z,10.46
2019-03-21T22:36:51.615Z,10.45
2019-03-21T22:41:53.782Z,10.32
2019-03-21T22:46:55.900Z,10.24
2019-03-21T22:51:58.133Z,10.20
2019-03-21T22:57:00.255Z,10.19
2019-03-21T23:02:02.393Z,10.16
2019-03-21T23:07:04.513Z,10.05
2019-03-21T23:12:06.598Z,9.95
2019-03-21T23:17:08.833Z,9.89
2019-03-21T23:22:10.935Z,9.72
2019-03-21T23:27:13.200Z,9.69
2019-03-21T23:32:15.280Z,9.67
2019-03-21T23:38:33.607Z,9.64
2019-03-21T23:43:35.685Z,9.61
2019-03-21T23:48:37.752Z,9.28
2019-03-21T23:53:39.837Z,9.31
2019-03-21T23:58:41.965Z,9.41
